sensor_id;sensor_type;location;lat;lon;timestamp;temperature;humidity
9544;DHT22;30418;51.45933468;7.33152330;2022-08-21T00:01:52;24.00;55.10
9544;DHT22;30418;51.45933468;7.33152330;2022-08-21T00:04:21;24.00;55.10
9544;DHT22;30418;51.45933468;7.33152330;2022-08-21T00:06:58;24.00;55.10
9544;DHT22;30418;51.45933468;7.33152330;2022-08-21T00:09:27;24.00;55.10
9544;DHT22;30418;51.45933468;7.33152330;2022-08-21T00:11:56;24.00;55.10
9544;DHT22;30418;51.45933468;7.33152330;2022-08-21T00:14:24;23.90;55.10
9544;DHT22;30418;51.45933468;7.33152330;2022-08-21T00:16:57;24.00;55.80
9544;DHT22;30418;51.45933468;7.33152330;2022-08-21T00:19:26;23.90;55.10
9544;DHT22;30418;51.45933468;7.33152330;2022-08-21T00:21:56;23.90;55.10
9544;DHT22;30418;51.45933468;7.33152330;2022-08-21T00:24:26;23.90;55.20
9544;DHT22;30418;51.45933468;7.33152330;2022-08-21T00:26:55;23.90;55.20
9544;DHT22;30418;51.45933468;7.33152330;2022-08-21T00:29:23;23.90;55.20
9544;DHT22;30418;51.45933468;7.33152330;2022-08-21T00:31:52;23.80;55.20
9544;DHT22;30418;51.45933468;7.33152330;2022-08-21T00:34:20;23.80;55.20
9544;DHT22;30418;51.45933468;7.33152330;2022-08-21T00:36:49;23.80;55.20
9544;DHT22;30418;51.45933468;7.33152330;2022-08-21T00:39:19;23.80;55.30
9544;DHT22;30418;51.45933468;7.33152330;2022-08-21T00:41:48;23.80;55.30
9544;DHT22;30418;51.45933468;7.33152330;2022-08-21T00:44:16;23.70;55.30
9544;DHT22;30418;51.45933468;7.33152330;2022-08-21T00:46:45;23.70;55.30
9544;DHT22;30418;51.45933468;7.33152330;2022-08-21T00:49:16;23.70;55.30
9544;DHT22;30418;51.45933468;7.33152330;2022-08-21T00:51:49;23.70;55.30
9544;DHT22;30418;51.45933468;7.33152330;2022-08-21T00:54:24;23.70;55.50
9544;DHT22;30418;51.45933468;7.33152330;2022-08-21T00:56:57;23.70;55.50
9544;DHT22;30418;51.45933468;7.33152330;2022-08-21T00:59:31;23.60;55.50
9544;DHT22;30418;51.45933468;7.33152330;2022-08-21T01:02:02;23.70;55.50
9544;DHT22;30418;51.45933468;7.33152330;2022-08-21T01:04:31;23.60;55.40
9544;DHT22;30418;51.45933468;7.33152330;2022-08-21T01:07:01;23.60;55.50
9544;DHT22;30418;51.45933468;7.33152330;2022-08-21T01:09:31;23.60;55.50
9544;DHT22;30418;51.45933468;7.33152330;2022-08-21T01:12:00;23.60;55.50
9544;DHT22;30418;51.45933468;7.33152330;2022-08-21T01:14:30;23.60;55.50
9544;DHT22;30418;51.45933468;7.33152330;2022-08-21T01:17:00;23.60;55.50
9544;DHT22;30418;51.45933468;7.33152330;2022-08-21T01:19:31;23.60;55.60
9544;DHT22;30418;51.45933468;7.33152330;2022-08-21T01:22:02;23.60;55.60
9544;DHT22;30418;51.45933468;7.33152330;2022-08-21T01:24:31;23.60;55.60
9544;DHT22;30418;51.45933468;7.33152330;2022-08-21T01:27:00;23.60;55.60
9544;DHT22;30418;51.45933468;7.33152330;2022-08-21T01:29:32;23.60;55.70
9544;DHT22;30418;51.45933468;7.33152330;2022-08-21T01:32:07;23.50;55.60
9544;DHT22;30418;51.45933468;7.33152330;2022-08-21T01:34:42;23.50;55.60
9544;DHT22;30418;51.45933468;7.33152330;2022-08-21T01:37:15;23.60;55.70
9544;DHT22;30418;51.45933468;7.33152330;2022-08-21T01:39:44;23.50;55.70
9544;DHT22;30418;51.45933468;7.33152330;2022-08-21T01:42:13;23.50;55.70
9544;DHT22;30418;51.45933468;7.33152330;2022-08-21T01:44:42;23.60;55.80
9544;DHT22;30418;51.45933468;7.33152330;2022-08-21T01:47:13;23.50;55.60
9544;DHT22;30418;51.45933468;7.33152330;2022-08-21T01:49:44;23.50;55.60
9544;DHT22;30418;51.45933468;7.33152330;2022-08-21T01:52:15;23.50;55.60
9544;DHT22;30418;51.45933468;7.33152330;2022-08-21T01:54:44;23.50;55.50
9544;DHT22;30418;51.45933468;7.33152330;2022-08-21T01:57:21;23.50;55.60
9544;DHT22;30418;51.45933468;7.33152330;2022-08-21T01:59:52;23.50;55.50
9544;DHT22;30418;51.45933468;7.33152330;2022-08-21T02:02:21;23.40;55.50
9544;DHT22;30418;51.45933468;7.33152330;2022-08-21T02:04:50;23.40;55.50
9544;DHT22;30418;51.45933468;7.33152330;2022-08-21T02:07:20;23.40;55.50
9544;DHT22;30418;51.45933468;7.33152330;2022-08-21T02:09:49;23.40;55.60
9544;DHT22;30418;51.45933468;7.33152330;2022-08-21T02:12:19;23.30;55.50
9544;DHT22;30418;51.45933468;7.33152330;2022-08-21T02:14:48;23.30;55.60
9544;DHT22;30418;51.45933468;7.33152330;2022-08-21T02:17:16;23.30;55.60
9544;DHT22;30418;51.45933468;7.33152330;2022-08-21T02:19:45;23.30;56.30
9544;DHT22;30418;51.45933468;7.33152330;2022-08-21T02:22:14;23.30;55.70
9544;DHT22;30418;51.45933468;7.33152330;2022-08-21T02:24:44;23.20;55.60
9544;DHT22;30418;51.45933468;7.33152330;2022-08-21T02:27:21;23.20;55.60
9544;DHT22;30418;51.45933468;7.33152330;2022-08-21T02:29:53;23.20;55.60
9544;DHT22;30418;51.45933468;7.33152330;2022-08-21T02:32:23;23.20;55.70
9544;DHT22;30418;51.45933468;7.33152330;2022-08-21T02:34:53;23.20;55.80
9544;DHT22;30418;51.45933468;7.33152330;2022-08-21T02:37:23;23.10;55.70
9544;DHT22;30418;51.45933468;7.33152330;2022-08-21T02:39:53;23.10;55.80
9544;DHT22;30418;51.45933468;7.33152330;2022-08-21T02:42:22;23.10;55.80
9544;DHT22;30418;51.45933468;7.33152330;2022-08-21T02:44:51;23.10;55.80
9544;DHT22;30418;51.45933468;7.33152330;2022-08-21T02:47:19;23.00;55.70
9544;DHT22;30418;51.45933468;7.33152330;2022-08-21T02:49:48;23.00;55.80
9544;DHT22;30418;51.45933468;7.33152330;2022-08-21T02:52:17;23.00;55.80
9544;DHT22;30418;51.45933468;7.33152330;2022-08-21T02:54:45;23.00;55.80
9544;DHT22;30418;51.45933468;7.33152330;2022-08-21T02:57:16;23.00;55.80
9544;DHT22;30418;51.45933468;7.33152330;2022-08-21T02:59:44;23.00;55.80
9544;DHT22;30418;51.45933468;7.33152330;2022-08-21T03:02:13;22.90;55.80
9544;DHT22;30418;51.45933468;7.33152330;2022-08-21T03:04:42;22.90;55.90
9544;DHT22;30418;51.45933468;7.33152330;2022-08-21T03:07:12;22.90;55.90
9544;DHT22;30418;51.45933468;7.33152330;2022-08-21T03:09:42;22.90;55.90
9544;DHT22;30418;51.45933468;7.33152330;2022-08-21T03:12:23;22.90;56.00
9544;DHT22;30418;51.45933468;7.33152330;2022-08-21T03:14:55;22.90;56.00
9544;DHT22;30418;51.45933468;7.33152330;2022-08-21T03:17:24;22.80;55.90
9544;DHT22;30418;51.45933468;7.33152330;2022-08-21T03:19:56;22.80;56.00
9544;DHT22;30418;51.45933468;7.33152330;2022-08-21T03:22:25;22.80;56.00
9544;DHT22;30418;51.45933468;7.33152330;2022-08-21T03:24:57;22.80;56.00
9544;DHT22;30418;51.45933468;7.33152330;2022-08-21T03:27:28;22.80;56.00
9544;DHT22;30418;51.45933468;7.33152330;2022-08-21T03:29:58;22.80;56.10
9544;DHT22;30418;51.45933468;7.33152330;2022-08-21T03:32:27;22.80;56.00
9544;DHT22;30418;51.45933468;7.33152330;2022-08-21T03:34:56;22.70;56.00
9544;DHT22;30418;51.45933468;7.33152330;2022-08-21T03:37:24;22.70;56.00
9544;DHT22;30418;51.45933468;7.33152330;2022-08-21T03:39:53;22.70;56.00
9544;DHT22;30418;51.45933468;7.33152330;2022-08-21T03:42:22;22.70;56.10
9544;DHT22;30418;51.45933468;7.33152330;2022-08-21T03:44:52;22.70;56.10
9544;DHT22;30418;51.45933468;7.33152330;2022-08-21T03:47:21;22.60;56.10
9544;DHT22;30418;51.45933468;7.33152330;2022-08-21T03:49:50;22.60;56.10
9544;DHT22;30418;51.45933468;7.33152330;2022-08-21T03:52:18;22.60;56.10
9544;DHT22;30418;51.45933468;7.33152330;2022-08-21T03:54:47;22.60;56.10
9544;DHT22;30418;51.45933468;7.33152330;2022-08-21T03:57:17;22.60;56.20
9544;DHT22;30418;51.45933468;7.33152330;2022-08-21T03:59:46;22.50;56.10
9544;DHT22;30418;51.45933468;7.33152330;2022-08-21T04:02:18;22.50;56.20
9544;DHT22;30418;51.45933468;7.33152330;2022-08-21T04:04:48;22.50;56.20
9544;DHT22;30418;51.45933468;7.33152330;2022-08-21T04:07:17;22.50;56.20
9544;DHT22;30418;51.45933468;7.33152330;2022-08-21T04:09:45;22.50;56.20
9544;DHT22;30418;51.45933468;7.33152330;2022-08-21T04:12:14;22.40;56.20
9544;DHT22;30418;51.45933468;7.33152330;2022-08-21T04:14:43;22.40;56.20
9544;DHT22;30418;51.45933468;7.33152330;2022-08-21T04:17:11;22.40;56.20
9544;DHT22;30418;51.45933468;7.33152330;2022-08-21T04:19:41;22.40;56.30
9544;DHT22;30418;51.45933468;7.33152330;2022-08-21T04:22:10;22.40;56.40
9544;DHT22;30418;51.45933468;7.33152330;2022-08-21T04:24:39;22.40;56.40
9544;DHT22;30418;51.45933468;7.33152330;2022-08-21T04:27:07;22.30;56.30
9544;DHT22;30418;51.45933468;7.33152330;2022-08-21T04:29:36;22.30;56.40
9544;DHT22;30418;51.45933468;7.33152330;2022-08-21T04:32:06;22.30;56.40
9544;DHT22;30418;51.45933468;7.33152330;2022-08-21T04:34:35;22.30;56.40
9544;DHT22;30418;51.45933468;7.33152330;2022-08-21T04:37:05;22.30;56.40
9544;DHT22;30418;51.45933468;7.33152330;2022-08-21T04:39:33;22.30;56.40
9544;DHT22;30418;51.45933468;7.33152330;2022-08-21T04:42:02;22.30;56.40
9544;DHT22;30418;51.45933468;7.33152330;2022-08-21T04:44:33;22.20;56.40
9544;DHT22;30418;51.45933468;7.33152330;2022-08-21T04:47:02;22.20;56.50
9544;DHT22;30418;51.45933468;7.33152330;2022-08-21T04:49:31;22.20;56.50
9544;DHT22;30418;51.45933468;7.33152330;2022-08-21T04:52:00;22.20;56.60
9544;DHT22;30418;51.45933468;7.33152330;2022-08-21T04:54:31;22.20;56.60
9544;DHT22;30418;51.45933468;7.33152330;2022-08-21T04:57:02;22.10;56.60
9544;DHT22;30418;51.45933468;7.33152330;2022-08-21T04:59:36;22.10;56.60
9544;DHT22;30418;51.45933468;7.33152330;2022-08-21T05:02:09;22.10;56.80
9544;DHT22;30418;51.45933468;7.33152330;2022-08-21T05:04:50;22.10;56.70
9544;DHT22;30418;51.45933468;7.33152330;2022-08-21T05:07:22;22.10;56.80
9544;DHT22;30418;51.45933468;7.33152330;2022-08-21T05:10:10;22.10;56.80
9544;DHT22;30418;51.45933468;7.33152330;2022-08-21T05:12:41;22.10;56.80
9544;DHT22;30418;51.45933468;7.33152330;2022-08-21T05:15:12;22.10;56.80
9544;DHT22;30418;51.45933468;7.33152330;2022-08-21T05:17:41;22.00;56.70
9544;DHT22;30418;51.45933468;7.33152330;2022-08-21T05:20:19;22.10;56.80
9544;DHT22;30418;51.45933468;7.33152330;2022-08-21T05:22:48;22.10;56.80
9544;DHT22;30418;51.45933468;7.33152330;2022-08-21T05:25:18;22.10;56.80
9544;DHT22;30418;51.45933468;7.33152330;2022-08-21T05:27:49;22.10;57.40
9544;DHT22;30418;51.45933468;7.33152330;2022-08-21T05:30:19;22.10;56.80
9544;DHT22;30418;51.45933468;7.33152330;2022-08-21T05:32:48;22.00;56.80
9544;DHT22;30418;51.45933468;7.33152330;2022-08-21T05:35:17;22.10;56.90
9544;DHT22;30418;51.45933468;7.33152330;2022-08-21T05:37:45;22.10;57.00
9544;DHT22;30418;51.45933468;7.33152330;2022-08-21T05:40:14;22.10;57.00
9544;DHT22;30418;51.45933468;7.33152330;2022-08-21T05:42:50;22.10;57.00
9544;DHT22;30418;51.45933468;7.33152330;2022-08-21T05:45:21;22.10;57.00
9544;DHT22;30418;51.45933468;7.33152330;2022-08-21T05:48:10;22.10;57.10
9544;DHT22;30418;51.45933468;7.33152330;2022-08-21T05:50:41;22.10;57.10
9544;DHT22;30418;51.45933468;7.33152330;2022-08-21T05:53:10;22.10;57.10
9544;DHT22;30418;51.45933468;7.33152330;2022-08-21T05:55:40;22.10;57.10
9544;DHT22;30418;51.45933468;7.33152330;2022-08-21T05:58:14;22.10;57.20
9544;DHT22;30418;51.45933468;7.33152330;2022-08-21T06:00:46;22.10;57.20
9544;DHT22;30418;51.45933468;7.33152330;2022-08-21T06:03:20;22.10;57.20
9544;DHT22;30418;51.45933468;7.33152330;2022-08-21T06:05:49;22.10;57.20
9544;DHT22;30418;51.45933468;7.33152330;2022-08-21T06:08:19;22.10;57.20
9544;DHT22;30418;51.45933468;7.33152330;2022-08-21T06:10:50;22.10;57.30
9544;DHT22;30418;51.45933468;7.33152330;2022-08-21T06:13:21;22.10;57.30
9544;DHT22;30418;51.45933468;7.33152330;2022-08-21T06:15:59;22.10;57.30
9544;DHT22;30418;51.45933468;7.33152330;2022-08-21T06:18:29;22.10;57.30
9544;DHT22;30418;51.45933468;7.33152330;2022-08-21T06:20:58;22.10;57.40
9544;DHT22;30418;51.45933468;7.33152330;2022-08-21T06:23:27;22.20;57.50
9544;DHT22;30418;51.45933468;7.33152330;2022-08-21T06:25:59;22.20;57.50
9544;DHT22;30418;51.45933468;7.33152330;2022-08-21T06:28:30;22.20;57.60
9544;DHT22;30418;51.45933468;7.33152330;2022-08-21T06:30:59;22.20;57.60
9544;DHT22;30418;51.45933468;7.33152330;2022-08-21T06:33:28;22.20;57.60
9544;DHT22;30418;51.45933468;7.33152330;2022-08-21T06:35:58;22.30;57.70
9544;DHT22;30418;51.45933468;7.33152330;2022-08-21T06:38:27;22.30;57.60
9544;DHT22;30418;51.45933468;7.33152330;2022-08-21T06:40:57;22.30;57.50
9544;DHT22;30418;51.45933468;7.33152330;2022-08-21T06:43:31;22.30;57.50
9544;DHT22;30418;51.45933468;7.33152330;2022-08-21T06:46:06;22.30;57.60
9544;DHT22;30418;51.45933468;7.33152330;2022-08-21T06:48:35;22.30;57.50
9544;DHT22;30418;51.45933468;7.33152330;2022-08-21T06:51:04;22.30;57.50
9544;DHT22;30418;51.45933468;7.33152330;2022-08-21T06:53:33;22.30;57.60
9544;DHT22;30418;51.45933468;7.33152330;2022-08-21T06:56:02;22.30;57.70
9544;DHT22;30418;51.45933468;7.33152330;2022-08-21T06:58:33;22.40;57.70
9544;DHT22;30418;51.45933468;7.33152330;2022-08-21T07:01:02;22.40;57.70
9544;DHT22;30418;51.45933468;7.33152330;2022-08-21T07:03:33;22.40;57.80
9544;DHT22;30418;51.45933468;7.33152330;2022-08-21T07:06:05;22.40;57.80
9544;DHT22;30418;51.45933468;7.33152330;2022-08-21T07:08:36;22.40;57.70
9544;DHT22;30418;51.45933468;7.33152330;2022-08-21T07:11:11;22.40;57.80
9544;DHT22;30418;51.45933468;7.33152330;2022-08-21T07:13:42;22.50;58.00
9544;DHT22;30418;51.45933468;7.33152330;2022-08-21T07:16:11;22.50;57.90
9544;DHT22;30418;51.45933468;7.33152330;2022-08-21T07:18:57;22.50;57.90
9544;DHT22;30418;51.45933468;7.33152330;2022-08-21T07:21:29;22.60;58.10
9544;DHT22;30418;51.45933468;7.33152330;2022-08-21T07:24:02;22.60;57.90
9544;DHT22;30418;51.45933468;7.33152330;2022-08-21T07:26:31;22.60;57.80
9544;DHT22;30418;51.45933468;7.33152330;2022-08-21T07:29:02;22.70;57.90
9544;DHT22;30418;51.45933468;7.33152330;2022-08-21T07:31:31;22.70;57.90
9544;DHT22;30418;51.45933468;7.33152330;2022-08-21T07:34:00;22.70;58.40
9544;DHT22;30418;51.45933468;7.33152330;2022-08-21T07:36:29;22.70;57.70
9544;DHT22;30418;51.45933468;7.33152330;2022-08-21T07:39:01;22.80;57.90
9544;DHT22;30418;51.45933468;7.33152330;2022-08-21T07:41:30;22.80;57.90
9544;DHT22;30418;51.45933468;7.33152330;2022-08-21T07:44:03;22.80;58.00
9544;DHT22;30418;51.45933468;7.33152330;2022-08-21T07:46:37;22.90;57.90
9544;DHT22;30418;51.45933468;7.33152330;2022-08-21T07:49:06;22.90;57.90
9544;DHT22;30418;51.45933468;7.33152330;2022-08-21T07:51:35;23.00;57.80
9544;DHT22;30418;51.45933468;7.33152330;2022-08-21T07:54:04;23.00;57.70
9544;DHT22;30418;51.45933468;7.33152330;2022-08-21T07:56:33;23.00;57.60
9544;DHT22;30418;51.45933468;7.33152330;2022-08-21T07:59:03;23.10;57.50
9544;DHT22;30418;51.45933468;7.33152330;2022-08-21T08:01:32;23.10;57.50
9544;DHT22;30418;51.45933468;7.33152330;2022-08-21T08:04:01;23.20;57.60
9544;DHT22;30418;51.45933468;7.33152330;2022-08-21T08:06:30;23.20;57.60
9544;DHT22;30418;51.45933468;7.33152330;2022-08-21T08:08:58;23.30;57.60
9544;DHT22;30418;51.45933468;7.33152330;2022-08-21T08:11:30;23.30;57.30
9544;DHT22;30418;51.45933468;7.33152330;2022-08-21T08:14:00;23.40;57.10
9544;DHT22;30418;51.45933468;7.33152330;2022-08-21T08:16:32;23.40;57.00
9544;DHT22;30418;51.45933468;7.33152330;2022-08-21T08:19:01;23.50;56.90
9544;DHT22;30418;51.45933468;7.33152330;2022-08-21T08:21:30;23.50;56.70
9544;DHT22;30418;51.45933468;7.33152330;2022-08-21T08:24:00;23.60;56.50
9544;DHT22;30418;51.45933468;7.33152330;2022-08-21T08:26:45;23.70;56.40
9544;DHT22;30418;51.45933468;7.33152330;2022-08-21T08:29:20;23.70;56.40
9544;DHT22;30418;51.45933468;7.33152330;2022-08-21T08:31:50;23.80;56.40
9544;DHT22;30418;51.45933468;7.33152330;2022-08-21T08:34:19;23.90;56.30
9544;DHT22;30418;51.45933468;7.33152330;2022-08-21T08:36:52;23.90;56.10
9544;DHT22;30418;51.45933468;7.33152330;2022-08-21T08:39:22;24.00;55.90
9544;DHT22;30418;51.45933468;7.33152330;2022-08-21T08:42:01;24.00;55.80
9544;DHT22;30418;51.45933468;7.33152330;2022-08-21T08:44:57;24.10;55.60
9544;DHT22;30418;51.45933468;7.33152330;2022-08-21T08:47:30;24.10;55.60
9544;DHT22;30418;51.45933468;7.33152330;2022-08-21T08:50:03;24.20;55.50
9544;DHT22;30418;51.45933468;7.33152330;2022-08-21T08:52:36;24.20;55.20
9544;DHT22;30418;51.45933468;7.33152330;2022-08-21T08:55:11;24.30;55.10
9544;DHT22;30418;51.45933468;7.33152330;2022-08-21T08:57:44;24.30;54.80
9544;DHT22;30418;51.45933468;7.33152330;2022-08-21T09:00:19;24.40;54.80
9544;DHT22;30418;51.45933468;7.33152330;2022-08-21T09:02:56;24.40;54.70
9544;DHT22;30418;51.45933468;7.33152330;2022-08-21T09:05:30;24.50;54.60
9544;DHT22;30418;51.45933468;7.33152330;2022-08-21T09:08:30;24.50;54.70
9544;DHT22;30418;51.45933468;7.33152330;2022-08-21T09:11:10;24.60;54.40
9544;DHT22;30418;51.45933468;7.33152330;2022-08-21T09:13:48;24.60;54.60
9544;DHT22;30418;51.45933468;7.33152330;2022-08-21T09:16:26;24.70;54.50
9544;DHT22;30418;51.45933468;7.33152330;2022-08-21T09:19:07;24.80;54.30
9544;DHT22;30418;51.45933468;7.33152330;2022-08-21T09:21:47;24.80;54.00
9544;DHT22;30418;51.45933468;7.33152330;2022-08-21T09:24:29;24.80;53.90
9544;DHT22;30418;51.45933468;7.33152330;2022-08-21T09:27:04;24.90;53.80
9544;DHT22;30418;51.45933468;7.33152330;2022-08-21T09:29:38;25.00;53.80
9544;DHT22;30418;51.45933468;7.33152330;2022-08-21T09:32:13;25.00;53.80
9544;DHT22;30418;51.45933468;7.33152330;2022-08-21T09:34:57;25.00;53.60
9544;DHT22;30418;51.45933468;7.33152330;2022-08-21T09:37:29;25.10;53.80
9544;DHT22;30418;51.45933468;7.33152330;2022-08-21T09:39:59;25.10;53.70
9544;DHT22;30418;51.45933468;7.33152330;2022-08-21T09:42:29;25.10;53.70
9544;DHT22;30418;51.45933468;7.33152330;2022-08-21T09:45:11;25.20;53.50
9544;DHT22;30418;51.45933468;7.33152330;2022-08-21T09:47:42;25.20;53.10
9544;DHT22;30418;51.45933468;7.33152330;2022-08-21T09:50:15;25.30;53.40
9544;DHT22;30418;51.45933468;7.33152330;2022-08-21T09:52:48;25.30;53.30
9544;DHT22;30418;51.45933468;7.33152330;2022-08-21T09:55:23;25.30;53.10
9544;DHT22;30418;51.45933468;7.33152330;2022-08-21T09:58:16;25.40;53.60
9544;DHT22;30418;51.45933468;7.33152330;2022-08-21T10:00:57;25.40;52.80
9544;DHT22;30418;51.45933468;7.33152330;2022-08-21T10:03:27;25.40;52.30
9544;DHT22;30418;51.45933468;7.33152330;2022-08-21T10:06:00;25.50;52.50
9544;DHT22;30418;51.45933468;7.33152330;2022-08-21T10:08:37;25.50;52.50
9544;DHT22;30418;51.45933468;7.33152330;2022-08-21T10:11:12;25.50;52.60
9544;DHT22;30418;51.45933468;7.33152330;2022-08-21T10:13:50;25.60;52.60
9544;DHT22;30418;51.45933468;7.33152330;2022-08-21T10:16:30;25.60;52.20
9544;DHT22;30418;51.45933468;7.33152330;2022-08-21T10:19:15;25.60;52.10
9544;DHT22;30418;51.45933468;7.33152330;2022-08-21T10:21:59;25.60;52.10
9544;DHT22;30418;51.45933468;7.33152330;2022-08-21T10:24:33;25.70;52.00
9544;DHT22;30418;51.45933468;7.33152330;2022-08-21T10:27:16;25.80;52.30
9544;DHT22;30418;51.45933468;7.33152330;2022-08-21T10:29:53;25.90;52.00
9544;DHT22;30418;51.45933468;7.33152330;2022-08-21T10:32:42;25.90;51.40
9544;DHT22;30418;51.45933468;7.33152330;2022-08-21T10:35:28;25.90;51.30
9544;DHT22;30418;51.45933468;7.33152330;2022-08-21T10:38:38;25.90;51.60
9544;DHT22;30418;51.45933468;7.33152330;2022-08-21T10:41:54;25.90;51.30
9544;DHT22;30418;51.45933468;7.33152330;2022-08-21T10:44:36;26.00;51.10
9544;DHT22;30418;51.45933468;7.33152330;2022-08-21T10:47:15;26.00;51.40
9544;DHT22;30418;51.45933468;7.33152330;2022-08-21T10:49:48;26.10;51.20
9544;DHT22;30418;51.45933468;7.33152330;2022-08-21T10:52:42;26.20;51.30
9544;DHT22;30418;51.45933468;7.33152330;2022-08-21T10:55:33;26.20;50.80
9544;DHT22;30418;51.45933468;7.33152330;2022-08-21T10:58:09;26.30;50.90
9544;DHT22;30418;51.45933468;7.33152330;2022-08-21T11:00:41;26.30;50.70
9544;DHT22;30418;51.45933468;7.33152330;2022-08-21T11:03:16;26.40;50.70
9544;DHT22;30418;51.45933468;7.33152330;2022-08-21T11:05:50;26.40;50.50
9544;DHT22;30418;51.45933468;7.33152330;2022-08-21T11:08:23;26.50;50.30
9544;DHT22;30418;51.45933468;7.33152330;2022-08-21T11:10:59;26.60;50.40
9544;DHT22;30418;51.45933468;7.33152330;2022-08-21T11:13:39;26.60;50.00
9544;DHT22;30418;51.45933468;7.33152330;2022-08-21T11:16:17;26.70;50.10
9544;DHT22;30418;51.45933468;7.33152330;2022-08-21T11:18:53;26.70;50.50
9544;DHT22;30418;51.45933468;7.33152330;2022-08-21T11:21:32;26.80;49.70
9544;DHT22;30418;51.45933468;7.33152330;2022-08-21T11:24:24;26.80;49.50
9544;DHT22;30418;51.45933468;7.33152330;2022-08-21T11:27:04;26.80;49.10
9544;DHT22;30418;51.45933468;7.33152330;2022-08-21T11:29:37;26.90;49.20
9544;DHT22;30418;51.45933468;7.33152330;2022-08-21T11:32:33;26.90;49.40
9544;DHT22;30418;51.45933468;7.33152330;2022-08-21T11:35:17;26.90;49.00
9544;DHT22;30418;51.45933468;7.33152330;2022-08-21T11:37:58;27.00;49.20
9544;DHT22;30418;51.45933468;7.33152330;2022-08-21T11:40:44;27.00;48.90
9544;DHT22;30418;51.45933468;7.33152330;2022-08-21T11:43:24;27.10;48.60
9544;DHT22;30418;51.45933468;7.33152330;2022-08-21T11:46:06;27.10;48.80
9544;DHT22;30418;51.45933468;7.33152330;2022-08-21T11:48:54;27.20;48.60
9544;DHT22;30418;51.45933468;7.33152330;2022-08-21T11:51:33;27.20;48.70
9544;DHT22;30418;51.45933468;7.33152330;2022-08-21T11:54:20;27.30;48.70
9544;DHT22;30418;51.45933468;7.33152330;2022-08-21T11:56:57;27.30;48.00
9544;DHT22;30418;51.45933468;7.33152330;2022-08-21T11:59:36;27.30;48.10
9544;DHT22;30418;51.45933468;7.33152330;2022-08-21T12:02:12;27.40;48.00
9544;DHT22;30418;51.45933468;7.33152330;2022-08-21T12:04:46;27.40;48.00
9544;DHT22;30418;51.45933468;7.33152330;2022-08-21T12:07:28;27.40;48.00
9544;DHT22;30418;51.45933468;7.33152330;2022-08-21T12:09:59;27.40;48.00
9544;DHT22;30418;51.45933468;7.33152330;2022-08-21T12:12:31;27.40;48.00
9544;DHT22;30418;51.45933468;7.33152330;2022-08-21T12:15:27;27.40;47.30
9544;DHT22;30418;51.45933468;7.33152330;2022-08-21T12:17:59;27.40;46.90
9544;DHT22;30418;51.45933468;7.33152330;2022-08-21T12:20:40;27.40;47.10
9544;DHT22;30418;51.45933468;7.33152330;2022-08-21T12:23:43;27.40;47.20
9544;DHT22;30418;51.45933468;7.33152330;2022-08-21T12:26:24;27.50;47.20
9544;DHT22;30418;51.45933468;7.33152330;2022-08-21T12:29:16;27.40;47.30
9544;DHT22;30418;51.45933468;7.33152330;2022-08-21T12:31:56;27.50;47.30
9544;DHT22;30418;51.45933468;7.33152330;2022-08-21T12:34:32;27.50;47.50
9544;DHT22;30418;51.45933468;7.33152330;2022-08-21T12:37:05;27.50;47.50
9544;DHT22;30418;51.45933468;7.33152330;2022-08-21T12:39:38;27.60;47.50
9544;DHT22;30418;51.45933468;7.33152330;2022-08-21T12:42:17;27.60;47.60
9544;DHT22;30418;51.45933468;7.33152330;2022-08-21T12:44:51;27.70;47.40
9544;DHT22;30418;51.45933468;7.33152330;2022-08-21T12:47:31;27.70;47.20
9544;DHT22;30418;51.45933468;7.33152330;2022-08-21T12:50:03;27.70;46.90
9544;DHT22;30418;51.45933468;7.33152330;2022-08-21T12:52:36;27.80;46.90
9544;DHT22;30418;51.45933468;7.33152330;2022-08-21T12:55:11;27.80;46.70
9544;DHT22;30418;51.45933468;7.33152330;2022-08-21T12:57:42;27.90;46.70
9544;DHT22;30418;51.45933468;7.33152330;2022-08-21T13:00:13;27.90;46.70
9544;DHT22;30418;51.45933468;7.33152330;2022-08-21T13:02:50;28.00;46.30
9544;DHT22;30418;51.45933468;7.33152330;2022-08-21T13:05:30;28.00;45.40
9544;DHT22;30418;51.45933468;7.33152330;2022-08-21T13:08:03;28.00;45.40
9544;DHT22;30418;51.45933468;7.33152330;2022-08-21T13:10:34;28.00;45.20
9544;DHT22;30418;51.45933468;7.33152330;2022-08-21T13:13:05;28.00;45.20
9544;DHT22;30418;51.45933468;7.33152330;2022-08-21T13:15:41;28.00;45.00
9544;DHT22;30418;51.45933468;7.33152330;2022-08-21T13:18:23;28.10;44.90
9544;DHT22;30418;51.45933468;7.33152330;2022-08-21T13:21:04;28.00;44.10
9544;DHT22;30418;51.45933468;7.33152330;2022-08-21T13:23:35;28.00;43.90
9544;DHT22;30418;51.45933468;7.33152330;2022-08-21T13:26:12;28.00;44.70
9544;DHT22;30418;51.45933468;7.33152330;2022-08-21T13:28:45;28.00;44.10
9544;DHT22;30418;51.45933468;7.33152330;2022-08-21T13:31:20;28.00;44.20
9544;DHT22;30418;51.45933468;7.33152330;2022-08-21T13:33:56;28.00;44.10
9544;DHT22;30418;51.45933468;7.33152330;2022-08-21T13:36:28;28.00;44.10
9544;DHT22;30418;51.45933468;7.33152330;2022-08-21T13:38:58;28.00;44.20
9544;DHT22;30418;51.45933468;7.33152330;2022-08-21T13:41:29;28.00;44.30
9544;DHT22;30418;51.45933468;7.33152330;2022-08-21T13:44:03;28.00;44.00
9544;DHT22;30418;51.45933468;7.33152330;2022-08-21T13:46:35;28.00;44.30
9544;DHT22;30418;51.45933468;7.33152330;2022-08-21T13:49:06;28.10;44.20
9544;DHT22;30418;51.45933468;7.33152330;2022-08-21T13:51:37;28.10;44.30
9544;DHT22;30418;51.45933468;7.33152330;2022-08-21T13:54:15;28.10;44.40
9544;DHT22;30418;51.45933468;7.33152330;2022-08-21T13:56:47;28.20;43.90
9544;DHT22;30418;51.45933468;7.33152330;2022-08-21T13:59:24;28.10;44.50
9544;DHT22;30418;51.45933468;7.33152330;2022-08-21T14:01:56;28.20;44.70
9544;DHT22;30418;51.45933468;7.33152330;2022-08-21T14:04:33;28.20;44.60
9544;DHT22;30418;51.45933468;7.33152330;2022-08-21T14:07:17;28.20;44.80
9544;DHT22;30418;51.45933468;7.33152330;2022-08-21T14:09:47;28.20;44.10